• Join FlightAware (Why Join?)
  • Login
  • US Flag 
07:27PM EDT


 

Airport Tracker/Info


-or-


 

Live Flight TrackerFlight Track Log ✈ EGF4039 ✈ 09-May-2013 ✈ KALO - KORD

Flight Track Log - Related Links

Times and Time Zones

All times are in EDT time to prevent confusion due to time zone crossing. See the EGF4039 flight status page for this flight to view local times or setup timezone preferences in your user account.

Time Position Orientation Groundspeed Altitude Reporting Facility
EDT Latitude Longitude Course Direction KTS MPH feet Rate Location/Type
05:27PM 42.6039 -92.4122 90° East 204 235 3,200  Level Chicago Center
05:28PM 42.5947 -92.3253 98° East 246 283 5,600 2,220 Climbing Chicago Center
05:29PM 42.5833 -92.2292 99° East 249 287 7,800 2,160 Climbing Chicago Center
05:30PM 42.5733 -92.1281 98° East 262 302 10,200 1,800 Climbing Chicago Center
05:31PM 42.4931 -91.7900 97° East  Level FlightAware Approximate
05:31PM 42.5614 -92.0225 99° East 273 314 11,600  Level Chicago Center
05:32PM 42.4833 -91.6687 90° East  Level FlightAware Approximate
05:32PM 42.5442 -91.8744 99° East 324 373 12,800  Level Chicago Center
05:33PM 42.5286 -91.7411 99° East 360 414 13,900 1,320 Climbing Chicago Center
05:34PM 42.5131 -91.6056 99° East 371 427 15,600 2,100 Climbing Chicago Center
05:35PM 42.4922 -91.4442 100° East 371 427 18,300 2,220 Climbing Chicago Center
05:36PM 42.4775 -91.3161 99° East 355 409 20,200 1,560 Climbing Chicago Center
05:37PM 42.4719 -91.1864 93° East 363 418 21,600 1,200 Climbing Chicago Center
05:38PM 42.5339 -91.0753 53° Northeast 379 436 22,800 660 Climbing Chicago Center
05:39PM 42.6008 -90.9650 50° Northeast 385 443 23,000 60 Climbing Chicago Center
05:40PM 42.6592 -90.8175 62° Northeast 380 437 23,000  Level Chicago Center
05:41PM 42.6511 -90.6725 94° East 387 445 23,000  Level Chicago Center
05:42PM 42.6419 -90.5200 95° East 403 464 23,000  Level Chicago Center
05:44PM 42.6325 -90.3656 95° East 413 475 23,000  Level Chicago Center
05:45PM 42.5975 -90.1914 105° East 406 467 23,000 -180 Level Chicago Center
05:46PM 42.5706 -90.0458 104° East 408 470 22,700 -720 Descending Chicago Center
05:47PM 42.5694 -89.8736 90° East 415 478 21,600 -1,020 Descending Chicago Center
05:48PM 42.5678 -89.7247 91° East 402 463 20,600 -1,260 Descending Chicago Center
05:49PM 42.5653 -89.5783 91° East 393 452 19,000 -1,500 Descending Chicago Center
05:50PM 42.5636 -89.4331 91° East 388 447 17,500 -1,440 Descending Chicago Center
05:51PM 42.5442 -89.2925 101° East 379 436 16,100 -1,320 Descending Chicago Center
05:52PM 42.5092 -89.1372 107° East 369 425 14,800 -1,140 Descending Chicago Center
05:53PM 42.4803 -89.0075 107° East 362 417 13,800 -1,020 Descending Chicago Center
05:54PM 42.4542 -88.8822 106° East 350 403 12,800 -1,200 Descending Chicago Center
05:55PM 42.4281 -88.7583 106° East 345 397 11,400 -1,320 Descending Chicago Center
05:56PM 42.4050 -88.6475 106° East 313 360 10,100 -1,140 Descending Chicago Center
05:57PM 42.3800 -88.5286 106° East 288 331 9,100 -540 Descending Chicago Center
05:58PM 42.3558 -88.4331 109° East 277 319 9,000 -540 Descending Chicago Center
05:59PM 42.3283 -88.3400 112° Southeast 271 312 8,000 -960 Descending Chicago Center
06:00PM 42.2878 -88.2697 128° Southeast 262 302 7,100 -480 Descending Chicago Center
06:01PM 42.2250 -88.2000 141° Southeast 246 283 7,000 -480 Descending Chicago Center
06:02PM 42.1800 -88.1464 139° Southeast 223 257 6,100 -900 Descending Chicago Center